sensor_id;sensor_type;location;lat;lon;timestamp;pressure;altitude;pressure_sealevel;temperature;humidity
75945;BME280;64628;50.104;14.614;2023-05-10T00:14:42;98296.70;;;10.93;37.83
75945;BME280;64628;50.104;14.614;2023-05-10T00:22:05;98286.13;;;10.80;38.04
75945;BME280;64628;50.104;14.614;2023-05-10T00:31:36;98289.05;;;11.02;37.99
75945;BME280;64628;50.104;14.614;2023-05-10T00:46:10;98281.44;;;10.96;38.25
75945;BME280;64628;50.104;14.614;2023-05-10T00:58:19;98270.74;;;10.92;38.24
75945;BME280;64628;50.104;14.614;2023-05-10T01:00:53;98268.22;;;10.92;38.15
75945;BME280;64628;50.104;14.614;2023-05-10T01:15:28;98267.31;;;11.02;38.51
75945;BME280;64628;50.104;14.614;2023-05-10T01:34:47;98252.15;;;10.42;39.53
75945;BME280;64628;50.104;14.614;2023-05-10T02:18:18;98249.33;;;9.76;40.79
75945;BME280;64628;50.104;14.614;2023-05-10T02:42:45;98242.29;;;9.76;41.69
75945;BME280;64628;50.104;14.614;2023-05-10T02:47:32;98244.90;;;9.57;41.70
75945;BME280;64628;50.104;14.614;2023-05-10T03:04:32;98242.97;;;9.74;41.70
75945;BME280;64628;50.104;14.614;2023-05-10T03:21:26;98230.79;;;9.44;42.40
75945;BME280;64628;50.104;14.614;2023-05-10T03:28:26;98229.27;;;9.42;42.55
75945;BME280;64628;50.104;14.614;2023-05-10T03:30:52;98231.84;;;9.38;42.25
75945;BME280;64628;50.104;14.614;2023-05-10T03:36:00;98235.72;;;9.78;42.05
75945;BME280;64628;50.104;14.614;2023-05-10T04:26:37;98251.25;;;10.66;39.68
75945;BME280;64628;50.104;14.614;2023-05-10T04:29:07;98249.06;;;11.07;39.55
75945;BME280;64628;50.104;14.614;2023-05-10T04:31:33;98246.30;;;11.23;39.30
75945;BME280;64628;50.104;14.614;2023-05-10T04:33:54;98247.65;;;10.83;39.26
75945;BME280;64628;50.104;14.614;2023-05-10T04:36:24;98240.54;;;11.45;39.03
75945;BME280;64628;50.104;14.614;2023-05-10T04:38:45;98244.43;;;11.10;38.97
75945;BME280;64628;50.104;14.614;2023-05-10T04:41:12;98243.11;;;11.47;38.73
75945;BME280;64628;50.104;14.614;2023-05-10T04:43:41;98245.23;;;11.33;38.81
75945;BME280;64628;50.104;14.614;2023-05-10T04:46:01;98246.24;;;11.17;38.78
75945;BME280;64628;50.104;14.614;2023-05-10T04:48:26;98246.48;;;11.49;38.68
75945;BME280;64628;50.104;14.614;2023-05-10T04:50:51;98242.76;;;11.65;38.61
75945;BME280;64628;50.104;14.614;2023-05-10T04:53:20;98236.88;;;12.01;38.39
75945;BME280;64628;50.104;14.614;2023-05-10T04:55:48;98238.35;;;11.62;38.29
75945;BME280;64628;50.104;14.614;2023-05-10T04:58:16;98237.39;;;12.02;38.31
75945;BME280;64628;50.104;14.614;2023-05-10T05:00:40;98237.18;;;12.11;38.26
75945;BME280;64628;50.104;14.614;2023-05-10T05:02:58;98240.13;;;12.32;38.15
75945;BME280;64628;50.104;14.614;2023-05-10T05:05:23;98237.65;;;12.22;38.00
75945;BME280;64628;50.104;14.614;2023-05-10T05:07:49;98236.81;;;11.94;38.82
75945;BME280;64628;50.104;14.614;2023-05-10T05:10:15;98237.29;;;12.24;38.93
75945;BME280;64628;50.104;14.614;2023-05-10T05:12:40;98236.82;;;11.78;39.15
75945;BME280;64628;50.104;14.614;2023-05-10T05:15:06;98243.73;;;12.28;39.20
75945;BME280;64628;50.104;14.614;2023-05-10T05:17:31;98245.52;;;12.04;39.43
75945;BME280;64628;50.104;14.614;2023-05-10T05:19:56;98246.26;;;12.33;39.40
75945;BME280;64628;50.104;14.614;2023-05-10T05:22:21;98243.98;;;12.40;39.32
75945;BME280;64628;50.104;14.614;2023-05-10T05:24:47;98244.78;;;12.55;39.50
75945;BME280;64628;50.104;14.614;2023-05-10T05:27:12;98240.00;;;12.66;39.42
75945;BME280;64628;50.104;14.614;2023-05-10T05:29:37;98240.82;;;12.58;39.52
75945;BME280;64628;50.104;14.614;2023-05-10T05:32:03;98238.23;;;12.92;39.49
75945;BME280;64628;50.104;14.614;2023-05-10T05:34:28;98239.47;;;12.58;39.58
75945;BME280;64628;50.104;14.614;2023-05-10T05:36:53;98237.84;;;12.78;39.32
75945;BME280;64628;50.104;14.614;2023-05-10T05:39:18;98231.58;;;13.08;38.98
75945;BME280;64628;50.104;14.614;2023-05-10T05:41:44;98226.42;;;12.96;38.94
75945;BME280;64628;50.104;14.614;2023-05-10T05:44:09;98230.71;;;13.36;38.66
75945;BME280;64628;50.104;14.614;2023-05-10T05:46:35;98228.95;;;13.31;38.55
75945;BME280;64628;50.104;14.614;2023-05-10T05:49:00;98226.22;;;13.34;38.50
75945;BME280;64628;50.104;14.614;2023-05-10T05:51:25;98230.34;;;13.68;38.60
75945;BME280;64628;50.104;14.614;2023-05-10T06:54:44;98205.51;;;40.15;7.90
75945;BME280;64628;50.104;14.614;2023-05-10T07:06:47;98200.03;;;38.74;8.40
75945;BME280;64628;50.104;14.614;2023-05-10T07:09:15;98199.16;;;39.08;8.39
75945;BME280;64628;50.104;14.614;2023-05-10T07:14:00;98193.36;;;40.70;7.59
75945;BME280;64628;50.104;14.614;2023-05-10T07:18:54;98186.48;;;41.32;7.37
75945;BME280;64628;50.104;14.614;2023-05-10T07:23:48;98193.96;;;43.86;6.36
75945;BME280;64628;50.104;14.614;2023-05-10T07:25:59;98188.62;;;44.96;5.81
75945;BME280;64628;50.104;14.614;2023-05-10T07:28:25;98189.92;;;45.95;5.20
75945;BME280;64628;50.104;14.614;2023-05-10T07:30:59;98190.86;;;45.80;4.98
75945;BME280;64628;50.104;14.614;2023-05-10T07:33:16;98188.79;;;45.48;5.16
75945;BME280;64628;50.104;14.614;2023-05-10T07:35:46;98193.16;;;46.18;4.69
75945;BME280;64628;50.104;14.614;2023-05-10T07:38:08;98191.24;;;45.80;5.06
75945;BME280;64628;50.104;14.614;2023-05-10T07:40:38;98192.08;;;46.29;4.83
75945;BME280;64628;50.104;14.614;2023-05-10T07:42:57;98192.68;;;46.37;4.71
75945;BME280;64628;50.104;14.614;2023-05-10T07:45:23;98190.30;;;47.18;4.53
75945;BME280;64628;50.104;14.614;2023-05-10T07:47:48;98188.47;;;47.09;4.59
75945;BME280;64628;50.104;14.614;2023-05-10T07:50:14;98189.59;;;46.47;4.57
75945;BME280;64628;50.104;14.614;2023-05-10T07:52:39;98187.37;;;44.82;5.04
75945;BME280;64628;50.104;14.614;2023-05-10T07:55:06;98185.27;;;44.79;5.25
75945;BME280;64628;50.104;14.614;2023-05-10T07:57:30;98184.77;;;43.40;5.83
75945;BME280;64628;50.104;14.614;2023-05-10T07:59:56;98189.17;;;43.40;6.10
75945;BME280;64628;50.104;14.614;2023-05-10T08:02:21;98185.06;;;43.35;5.89
75945;BME280;64628;50.104;14.614;2023-05-10T08:04:46;98181.82;;;43.50;6.03
75945;BME280;64628;50.104;14.614;2023-05-10T08:07:12;98183.61;;;44.51;5.58
75945;BME280;64628;50.104;14.614;2023-05-10T08:09:38;98184.63;;;44.09;5.68
75945;BME280;64628;50.104;14.614;2023-05-10T08:12:03;98182.49;;;43.92;5.88
75945;BME280;64628;50.104;14.614;2023-05-10T08:14:29;98176.07;;;45.10;5.47
75945;BME280;64628;50.104;14.614;2023-05-10T08:16:54;98180.78;;;46.30;5.13
75945;BME280;64628;50.104;14.614;2023-05-10T08:19:19;98183.93;;;46.66;4.26
75945;BME280;64628;50.104;14.614;2023-05-10T08:21:45;98179.30;;;45.22;4.81
75945;BME280;64628;50.104;14.614;2023-05-10T08:24:10;98179.60;;;46.00;4.58
75945;BME280;64628;50.104;14.614;2023-05-10T08:26:36;98175.97;;;44.14;5.19
75945;BME280;64628;50.104;14.614;2023-05-10T08:29:01;98177.07;;;45.62;5.05
75945;BME280;64628;50.104;14.614;2023-05-10T08:31:26;98176.64;;;46.67;4.40
75945;BME280;64628;50.104;14.614;2023-05-10T08:33:52;98176.60;;;47.64;4.06
75945;BME280;64628;50.104;14.614;2023-05-10T08:36:17;98178.14;;;46.96;4.33
75945;BME280;64628;50.104;14.614;2023-05-10T08:38:43;98178.81;;;46.02;4.69
75945;BME280;64628;50.104;14.614;2023-05-10T08:41:10;98181.50;;;45.73;4.74
75945;BME280;64628;50.104;14.614;2023-05-10T08:43:36;98181.45;;;45.80;4.79
75945;BME280;64628;50.104;14.614;2023-05-10T08:46:01;98181.36;;;45.26;4.86
75945;BME280;64628;50.104;14.614;2023-05-10T08:48:25;98182.30;;;46.28;4.54
75945;BME280;64628;50.104;14.614;2023-05-10T08:50:52;98182.90;;;45.57;4.54
75945;BME280;64628;50.104;14.614;2023-05-10T08:53:16;98185.29;;;45.58;4.48
75945;BME280;64628;50.104;14.614;2023-05-10T08:55:42;98182.26;;;46.07;4.61
75945;BME280;64628;50.104;14.614;2023-05-10T08:58:07;98177.72;;;46.90;4.70
75945;BME280;64628;50.104;14.614;2023-05-10T09:00:33;98175.66;;;46.58;4.44
75945;BME280;64628;50.104;14.614;2023-05-10T09:02:58;98180.92;;;45.28;4.81
75945;BME280;64628;50.104;14.614;2023-05-10T09:07:49;98179.85;;;43.71;5.40
75945;BME280;64628;50.104;14.614;2023-05-10T09:10:15;98178.58;;;43.00;5.72
75945;BME280;64628;50.104;14.614;2023-05-10T09:12:40;98180.58;;;43.55;5.86
75945;BME280;64628;50.104;14.614;2023-05-10T09:15:06;98177.50;;;45.24;5.19
75945;BME280;64628;50.104;14.614;2023-05-10T09:17:31;98187.21;;;45.70;4.98
75945;BME280;64628;50.104;14.614;2023-05-10T09:19:58;98185.28;;;45.10;4.92
75945;BME280;64628;50.104;14.614;2023-05-10T09:22:21;98180.29;;;44.76;5.12
75945;BME280;64628;50.104;14.614;2023-05-10T09:24:46;98183.19;;;44.46;5.32
75945;BME280;64628;50.104;14.614;2023-05-10T09:27:12;98179.33;;;44.97;5.03
75945;BME280;64628;50.104;14.614;2023-05-10T09:29:42;98175.00;;;44.73;5.04
75945;BME280;64628;50.104;14.614;2023-05-10T09:32:03;98173.71;;;44.71;5.78
75945;BME280;64628;50.104;14.614;2023-05-10T09:34:29;98175.37;;;45.61;5.24
75945;BME280;64628;50.104;14.614;2023-05-10T09:36:55;98170.53;;;44.34;5.28
75945;BME280;64628;50.104;14.614;2023-05-10T09:39:19;98170.67;;;45.41;5.31
75945;BME280;64628;50.104;14.614;2023-05-10T09:41:45;98174.31;;;45.80;4.97
75945;BME280;64628;50.104;14.614;2023-05-10T09:44:11;98172.14;;;45.19;5.01
75945;BME280;64628;50.104;14.614;2023-05-10T09:46:36;98168.64;;;45.24;5.04
75945;BME280;64628;50.104;14.614;2023-05-10T09:49:01;98168.03;;;44.01;5.32
75945;BME280;64628;50.104;14.614;2023-05-10T09:51:27;98167.66;;;43.99;5.54
75945;BME280;64628;50.104;14.614;2023-05-10T09:58:43;98170.28;;;43.07;5.98
75945;BME280;64628;50.104;14.614;2023-05-10T10:01:11;98162.71;;;44.11;6.14
75945;BME280;64628;50.104;14.614;2023-05-10T10:03:41;98165.39;;;42.67;6.04
75945;BME280;64628;50.104;14.614;2023-05-10T10:06:00;98159.21;;;41.32;6.92
75945;BME280;64628;50.104;14.614;2023-05-10T10:08:25;98158.02;;;40.19;7.35
75945;BME280;64628;50.104;14.614;2023-05-10T10:10:51;98154.95;;;39.00;8.27
75945;BME280;64628;50.104;14.614;2023-05-10T10:13:16;98157.99;;;37.23;9.02
75945;BME280;64628;50.104;14.614;2023-05-10T10:15:42;98159.10;;;37.37;10.57
75945;BME280;64628;50.104;14.614;2023-05-10T10:18:08;98154.88;;;37.15;10.52
75945;BME280;64628;50.104;14.614;2023-05-10T10:20:34;98154.22;;;36.17;10.35
75945;BME280;64628;50.104;14.614;2023-05-10T10:22:59;98152.67;;;35.25;10.22
75945;BME280;64628;50.104;14.614;2023-05-10T10:25:25;98153.48;;;34.39;10.85
75945;BME280;64628;50.104;14.614;2023-05-10T10:28:04;98155.59;;;33.50;11.36
75945;BME280;64628;50.104;14.614;2023-05-10T10:30:23;98158.95;;;33.20;12.01
75945;BME280;64628;50.104;14.614;2023-05-10T10:32:54;98152.06;;;33.10;11.74
75945;BME280;64628;50.104;14.614;2023-05-10T10:35:08;98152.49;;;34.41;12.18
75945;BME280;64628;50.104;14.614;2023-05-10T10:37:44;98152.45;;;34.87;11.78
75945;BME280;64628;50.104;14.614;2023-05-10T10:39:58;98157.81;;;33.59;11.19
75945;BME280;64628;50.104;14.614;2023-05-10T10:44:50;98152.92;;;33.68;11.66
75945;BME280;64628;50.104;14.614;2023-05-10T10:47:23;98149.73;;;32.35;12.23
75945;BME280;64628;50.104;14.614;2023-05-10T10:49:49;98150.81;;;31.60;13.05
75945;BME280;64628;50.104;14.614;2023-05-10T10:52:21;98143.26;;;31.17;13.24
75945;BME280;64628;50.104;14.614;2023-05-10T10:54:32;98144.30;;;31.10;13.41
75945;BME280;64628;50.104;14.614;2023-05-10T10:57:11;98142.62;;;30.15;13.82
75945;BME280;64628;50.104;14.614;2023-05-10T11:02:07;98145.01;;;31.26;13.45
75945;BME280;64628;50.104;14.614;2023-05-10T11:09:25;98134.41;;;30.63;15.34
75945;BME280;64628;50.104;14.614;2023-05-10T11:19:11;98145.31;;;29.51;15.01
75945;BME280;64628;50.104;14.614;2023-05-10T11:21:26;98140.57;;;29.10;15.60
75945;BME280;64628;50.104;14.614;2023-05-10T11:23:51;98135.62;;;27.84;16.44
75945;BME280;64628;50.104;14.614;2023-05-10T11:26:08;98141.37;;;28.16;16.61
75945;BME280;64628;50.104;14.614;2023-05-10T11:28:33;98140.85;;;28.00;17.18
75945;BME280;64628;50.104;14.614;2023-05-10T11:30:58;98140.82;;;28.53;16.56
75945;BME280;64628;50.104;14.614;2023-05-10T11:33:24;98145.41;;;29.07;16.18
75945;BME280;64628;50.104;14.614;2023-05-10T11:35:50;98144.93;;;29.05;15.94
75945;BME280;64628;50.104;14.614;2023-05-10T11:38:16;98144.43;;;28.60;16.07
75945;BME280;64628;50.104;14.614;2023-05-10T11:40:42;98144.88;;;29.35;15.73
75945;BME280;64628;50.104;14.614;2023-05-10T11:43:09;98147.45;;;29.16;15.43
75945;BME280;64628;50.104;14.614;2023-05-10T11:45:33;98148.56;;;30.06;15.07
75945;BME280;64628;50.104;14.614;2023-05-10T11:47:59;98138.09;;;30.13;14.77
75945;BME280;64628;50.104;14.614;2023-05-10T11:50:24;98139.99;;;30.04;15.06
75945;BME280;64628;50.104;14.614;2023-05-10T11:52:51;98138.91;;;30.17;15.01
75945;BME280;64628;50.104;14.614;2023-05-10T11:55:16;98136.88;;;30.03;14.23
75945;BME280;64628;50.104;14.614;2023-05-10T11:57:41;98144.28;;;30.68;14.29
75945;BME280;64628;50.104;14.614;2023-05-10T12:00:08;98143.20;;;31.31;13.49
75945;BME280;64628;50.104;14.614;2023-05-10T12:02:33;98144.40;;;31.82;13.84
75945;BME280;64628;50.104;14.614;2023-05-10T12:04:58;98146.40;;;31.38;13.48
75945;BME280;64628;50.104;14.614;2023-05-10T12:07:26;98149.27;;;30.41;14.02
75945;BME280;64628;50.104;14.614;2023-05-10T12:10:02;98152.39;;;28.69;15.01
75945;BME280;64628;50.104;14.614;2023-05-10T12:12:16;98155.89;;;28.77;15.84
75945;BME280;64628;50.104;14.614;2023-05-10T12:14:41;98151.06;;;28.58;15.47
75945;BME280;64628;50.104;14.614;2023-05-10T12:17:11;98149.00;;;28.90;15.57
75945;BME280;64628;50.104;14.614;2023-05-10T12:19:37;98153.40;;;29.55;15.89
75945;BME280;64628;50.104;14.614;2023-05-10T12:21:59;98152.85;;;29.00;15.77
75945;BME280;64628;50.104;14.614;2023-05-10T12:24:24;98152.73;;;29.29;15.23
75945;BME280;64628;50.104;14.614;2023-05-10T12:26:50;98151.90;;;30.08;14.62
75945;BME280;64628;50.104;14.614;2023-05-10T12:29:17;98151.32;;;29.79;14.27
75945;BME280;64628;50.104;14.614;2023-05-10T12:31:51;98151.66;;;30.78;14.20
75945;BME280;64628;50.104;14.614;2023-05-10T12:34:08;98153.75;;;31.16;14.46
75945;BME280;64628;50.104;14.614;2023-05-10T12:36:32;98149.53;;;30.77;13.85
75945;BME280;64628;50.104;14.614;2023-05-10T12:39:02;98148.16;;;30.91;13.49
75945;BME280;64628;50.104;14.614;2023-05-10T12:41:24;98149.33;;;29.86;14.95
75945;BME280;64628;50.104;14.614;2023-05-10T12:43:49;98151.25;;;28.89;15.61
75945;BME280;64628;50.104;14.614;2023-05-10T12:46:17;98156.96;;;28.73;16.69
75945;BME280;64628;50.104;14.614;2023-05-10T12:48:42;98158.26;;;28.62;16.71
75945;BME280;64628;50.104;14.614;2023-05-10T12:51:07;98157.77;;;27.74;17.15
75945;BME280;64628;50.104;14.614;2023-05-10T12:53:32;98159.84;;;27.06;17.72
75945;BME280;64628;50.104;14.614;2023-05-10T12:55:58;98158.66;;;27.23;17.61
75945;BME280;64628;50.104;14.614;2023-05-10T12:58:24;98157.78;;;27.20;17.63
75945;BME280;64628;50.104;14.614;2023-05-10T13:00:50;98159.23;;;26.49;18.10
75945;BME280;64628;50.104;14.614;2023-05-10T13:03:15;98155.03;;;26.37;18.07
75945;BME280;64628;50.104;14.614;2023-05-10T13:05:41;98153.30;;;27.25;18.07
75945;BME280;64628;50.104;14.614;2023-05-10T13:08:07;98153.30;;;28.16;18.41
75945;BME280;64628;50.104;14.614;2023-05-10T13:10:33;98156.71;;;28.23;16.92
75945;BME280;64628;50.104;14.614;2023-05-10T13:12:59;98156.85;;;28.29;17.37
75945;BME280;64628;50.104;14.614;2023-05-10T13:15:25;98155.35;;;27.89;17.15
75945;BME280;64628;50.104;14.614;2023-05-10T13:17:50;98152.97;;;28.45;18.24
75945;BME280;64628;50.104;14.614;2023-05-10T13:20:16;98154.23;;;28.16;17.34
75945;BME280;64628;50.104;14.614;2023-05-10T13:22:43;98161.07;;;27.78;17.39
75945;BME280;64628;50.104;14.614;2023-05-10T13:25:09;98154.25;;;26.82;17.95
75945;BME280;64628;50.104;14.614;2023-05-10T13:27:34;98156.02;;;27.31;18.27
75945;BME280;64628;50.104;14.614;2023-05-10T13:29:59;98157.96;;;27.38;18.36
75945;BME280;64628;50.104;14.614;2023-05-10T13:32:25;98148.73;;;27.90;17.88
75945;BME280;64628;50.104;14.614;2023-05-10T13:34:51;98151.17;;;28.24;18.53
75945;BME280;64628;50.104;14.614;2023-05-10T13:37:17;98147.63;;;27.37;17.25
75945;BME280;64628;50.104;14.614;2023-05-10T13:39:42;98148.54;;;28.24;17.15
75945;BME280;64628;50.104;14.614;2023-05-10T13:42:08;98146.48;;;27.53;17.50
75945;BME280;64628;50.104;14.614;2023-05-10T13:44:34;98143.97;;;28.43;18.31
75945;BME280;64628;50.104;14.614;2023-05-10T13:47:00;98142.39;;;28.87;17.28
75945;BME280;64628;50.104;14.614;2023-05-10T13:49:26;98142.87;;;28.31;16.67
75945;BME280;64628;50.104;14.614;2023-05-10T13:51:51;98142.07;;;28.56;16.49
75945;BME280;64628;50.104;14.614;2023-05-10T13:54:17;98139.93;;;27.56;17.33
75945;BME280;64628;50.104;14.614;2023-05-10T13:56:43;98149.04;;;26.72;17.95
75945;BME280;64628;50.104;14.614;2023-05-10T13:59:09;98143.74;;;26.40;18.26
75945;BME280;64628;50.104;14.614;2023-05-10T14:01:34;98139.01;;;26.56;18.31
75945;BME280;64628;50.104;14.614;2023-05-10T14:04:00;98142.48;;;26.07;18.79
75945;BME280;64628;50.104;14.614;2023-05-10T14:06:26;98136.83;;;25.91;19.02
75945;BME280;64628;50.104;14.614;2023-05-10T14:08:52;98133.79;;;25.80;19.04
75945;BME280;64628;50.104;14.614;2023-05-10T14:11:17;98136.71;;;25.67;19.32
75945;BME280;64628;50.104;14.614;2023-05-10T14:13:43;98134.42;;;25.81;20.05
75945;BME280;64628;50.104;14.614;2023-05-10T14:16:08;98135.13;;;25.92;19.71
75945;BME280;64628;50.104;14.614;2023-05-10T14:18:33;98131.61;;;26.10;19.37
75945;BME280;64628;50.104;14.614;2023-05-10T14:20:58;98132.38;;;26.39;20.18
75945;BME280;64628;50.104;14.614;2023-05-10T14:23:23;98135.26;;;25.96;19.66
75945;BME280;64628;50.104;14.614;2023-05-10T14:25:49;98133.04;;;25.54;19.47
75945;BME280;64628;50.104;14.614;2023-05-10T14:28:15;98131.33;;;25.41;19.87
75945;BME280;64628;50.104;14.614;2023-05-10T14:30:40;98133.88;;;25.35;20.00
75945;BME280;64628;50.104;14.614;2023-05-10T14:33:06;98135.79;;;25.55;20.25
75945;BME280;64628;50.104;14.614;2023-05-10T14:35:31;98131.70;;;25.57;20.17
75945;BME280;64628;50.104;14.614;2023-05-10T14:37:57;98131.14;;;25.58;20.13
75945;BME280;64628;50.104;14.614;2023-05-10T14:40:22;98136.54;;;25.28;20.53
75945;BME280;64628;50.104;14.614;2023-05-10T14:42:49;98137.76;;;25.18;20.71
75945;BME280;64628;50.104;14.614;2023-05-10T14:45:14;98137.49;;;25.48;20.57
75945;BME280;64628;50.104;14.614;2023-05-10T14:47:39;98137.99;;;25.71;20.36
75945;BME280;64628;50.104;14.614;2023-05-10T14:50:05;98135.52;;;25.90;20.14
75945;BME280;64628;50.104;14.614;2023-05-10T14:52:30;98139.05;;;26.00;20.02
75945;BME280;64628;50.104;14.614;2023-05-10T14:54:56;98143.31;;;25.28;20.06
75945;BME280;64628;50.104;14.614;2023-05-10T14:57:21;98143.42;;;25.46;20.03
75945;BME280;64628;50.104;14.614;2023-05-10T14:59:46;98142.94;;;25.65;20.01
75945;BME280;64628;50.104;14.614;2023-05-10T15:02:12;98140.68;;;25.57;19.95
75945;BME280;64628;50.104;14.614;2023-05-10T15:04:37;98146.44;;;25.38;20.32
75945;BME280;64628;50.104;14.614;2023-05-10T15:07:03;98147.86;;;25.34;20.45
75945;BME280;64628;50.104;14.614;2023-05-10T15:09:29;98151.92;;;24.86;20.59
75945;BME280;64628;50.104;14.614;2023-05-10T15:11:55;98153.93;;;25.43;20.28
75945;BME280;64628;50.104;14.614;2023-05-10T15:14:20;98155.11;;;24.98;20.22
75945;BME280;64628;50.104;14.614;2023-05-10T15:16:45;98158.64;;;24.64;20.79
75945;BME280;64628;50.104;14.614;2023-05-10T15:19:11;98164.19;;;24.63;20.80
75945;BME280;64628;50.104;14.614;2023-05-10T15:21:36;98163.54;;;24.51;20.94
75945;BME280;64628;50.104;14.614;2023-05-10T15:24:01;98164.29;;;24.03;21.05
75945;BME280;64628;50.104;14.614;2023-05-10T15:26:26;98167.63;;;24.29;21.17
75945;BME280;64628;50.104;14.614;2023-05-10T15:28:52;98167.90;;;24.49;21.31
75945;BME280;64628;50.104;14.614;2023-05-10T15:31:17;98165.25;;;24.01;21.55
75945;BME280;64628;50.104;14.614;2023-05-10T15:33:42;98169.42;;;24.88;21.55
75945;BME280;64628;50.104;14.614;2023-05-10T15:36:08;98169.65;;;24.88;21.52
75945;BME280;64628;50.104;14.614;2023-05-10T15:38:33;98172.88;;;24.58;21.07
75945;BME280;64628;50.104;14.614;2023-05-10T15:40:58;98169.33;;;24.29;21.27
75945;BME280;64628;50.104;14.614;2023-05-10T15:43:24;98170.58;;;24.67;21.54
75945;BME280;64628;50.104;14.614;2023-05-10T15:45:54;98168.00;;;24.59;21.20
75945;BME280;64628;50.104;14.614;2023-05-10T15:48:14;98169.84;;;25.08;21.03
75945;BME280;64628;50.104;14.614;2023-05-10T15:50:39;98168.41;;;24.67;20.81
75945;BME280;64628;50.104;14.614;2023-05-10T16:07:51;98172.38;;;24.06;22.40
75945;BME280;64628;50.104;14.614;2023-05-10T16:10:03;98172.40;;;23.16;23.16
75945;BME280;64628;50.104;14.614;2023-05-10T16:14:52;98175.27;;;22.72;24.28
75945;BME280;64628;50.104;14.614;2023-05-10T16:17:17;98175.38;;;22.29;24.58
75945;BME280;64628;50.104;14.614;2023-05-10T16:19:42;98175.43;;;22.30;24.77
75945;BME280;64628;50.104;14.614;2023-05-10T16:22:07;98176.45;;;22.35;24.97
75945;BME280;64628;50.104;14.614;2023-05-10T16:24:32;98177.08;;;22.34;25.01
75945;BME280;64628;50.104;14.614;2023-05-10T16:26:57;98176.57;;;22.43;25.05
75945;BME280;64628;50.104;14.614;2023-05-10T16:29:22;98179.94;;;22.92;24.80
75945;BME280;64628;50.104;14.614;2023-05-10T16:31:47;98181.25;;;22.62;24.85
75945;BME280;64628;50.104;14.614;2023-05-10T16:34:13;98183.68;;;22.60;24.93
75945;BME280;64628;50.104;14.614;2023-05-10T16:36:38;98188.24;;;23.00;24.87
75945;BME280;64628;50.104;14.614;2023-05-10T16:39:03;98187.28;;;22.46;25.07
75945;BME280;64628;50.104;14.614;2023-05-10T16:41:28;98187.77;;;22.18;25.27
75945;BME280;64628;50.104;14.614;2023-05-10T16:43:53;98191.05;;;22.40;25.27
75945;BME280;64628;50.104;14.614;2023-05-10T16:46:19;98191.39;;;22.38;24.96
75945;BME280;64628;50.104;14.614;2023-05-10T16:48:43;98194.50;;;22.10;25.15
75945;BME280;64628;50.104;14.614;2023-05-10T16:51:08;98195.95;;;22.30;25.09
75945;BME280;64628;50.104;14.614;2023-05-10T16:53:34;98199.24;;;22.24;25.17
75945;BME280;64628;50.104;14.614;2023-05-10T16:55:59;98198.48;;;22.43;24.75
75945;BME280;64628;50.104;14.614;2023-05-10T16:58:23;98200.05;;;22.30;24.87
75945;BME280;64628;50.104;14.614;2023-05-10T17:00:48;98204.38;;;22.50;24.68
75945;BME280;64628;50.104;14.614;2023-05-10T17:03:13;98203.56;;;22.28;24.91
75945;BME280;64628;50.104;14.614;2023-05-10T17:05:39;98209.70;;;22.41;25.22
75945;BME280;64628;50.104;14.614;2023-05-10T17:08:04;98213.77;;;22.51;24.94
75945;BME280;64628;50.104;14.614;2023-05-10T17:10:29;98216.48;;;22.56;24.79
75945;BME280;64628;50.104;14.614;2023-05-10T17:12:54;98220.40;;;22.32;25.24
75945;BME280;64628;50.104;14.614;2023-05-10T17:15:19;98223.25;;;22.22;25.25
75945;BME280;64628;50.104;14.614;2023-05-10T17:17:44;98221.67;;;22.12;25.42
75945;BME280;64628;50.104;14.614;2023-05-10T17:20:10;98224.69;;;22.45;25.06
75945;BME280;64628;50.104;14.614;2023-05-10T17:22:34;98226.23;;;22.38;25.27
75945;BME280;64628;50.104;14.614;2023-05-10T17:25:00;98229.93;;;22.00;24.93
75945;BME280;64628;50.104;14.614;2023-05-10T17:27:26;98234.74;;;21.82;25.30
75945;BME280;64628;50.104;14.614;2023-05-10T17:32:25;98238.02;;;21.63;25.75
75945;BME280;64628;50.104;14.614;2023-05-10T17:34:54;98240.46;;;21.88;25.81
75945;BME280;64628;50.104;14.614;2023-05-10T17:44:35;98256.05;;;21.50;26.07
75945;BME280;64628;50.104;14.614;2023-05-10T17:49:19;98265.72;;;21.20;26.44
75945;BME280;64628;50.104;14.614;2023-05-10T17:56:39;98267.09;;;20.48;27.21
75945;BME280;64628;50.104;14.614;2023-05-10T17:59:13;98271.86;;;20.37;27.51
75945;BME280;64628;50.104;14.614;2023-05-10T18:01:39;98269.71;;;20.48;27.74
75945;BME280;64628;50.104;14.614;2023-05-10T18:06:18;98277.53;;;20.81;27.60
75945;BME280;64628;50.104;14.614;2023-05-10T18:08:41;98279.25;;;20.51;27.65
75945;BME280;64628;50.104;14.614;2023-05-10T18:16:00;98281.54;;;20.50;28.09
75945;BME280;64628;50.104;14.614;2023-05-10T18:25:36;98293.61;;;20.34;28.51
75945;BME280;64628;50.104;14.614;2023-05-10T18:32:45;98302.41;;;20.24;28.69
75945;BME280;64628;50.104;14.614;2023-05-10T18:35:11;98302.67;;;19.90;28.90
75945;BME280;64628;50.104;14.614;2023-05-10T18:37:36;98301.37;;;20.03;28.93
75945;BME280;64628;50.104;14.614;2023-05-10T18:40:01;98305.95;;;19.82;29.13
75945;BME280;64628;50.104;14.614;2023-05-10T18:42:26;98308.81;;;19.72;29.32
75945;BME280;64628;50.104;14.614;2023-05-10T18:44:51;98312.98;;;19.61;29.61
75945;BME280;64628;50.104;14.614;2023-05-10T18:47:16;98314.55;;;19.51;29.57
75945;BME280;64628;50.104;14.614;2023-05-10T18:49:41;98318.36;;;19.42;29.60
75945;BME280;64628;50.104;14.614;2023-05-10T18:52:07;98320.94;;;19.75;29.75
75945;BME280;64628;50.104;14.614;2023-05-10T18:54:32;98325.68;;;19.37;29.76
75945;BME280;64628;50.104;14.614;2023-05-10T18:56:58;98330.81;;;19.52;29.97
75945;BME280;64628;50.104;14.614;2023-05-10T18:59:23;98332.96;;;18.91;30.29
75945;BME280;64628;50.104;14.614;2023-05-10T19:01:48;98336.16;;;19.18;30.39
75945;BME280;64628;50.104;14.614;2023-05-10T19:04:14;98338.81;;;18.49;30.41